KONA/ONA METAR and TAF weather

Enter ICAO airport designator
Station Type Date Time Source
KONA METAR 2021/01/22 06:35 UTC NOAA

KONA 220635Z AUTO 34010G20KT 10SM CLR M11/M17 A3008 RMK AO2


Station Type Date Time Source
KONA Decoded METAR 2021/01/22 06:35 UTC NOAA

Winona, Winona Municipal Airport-Max Conrad Field, MN, United States (KONA) 44-05N 091-42W
Jan 22, 2021 - 01:35 AM EST / 2021.01.22 0635 UTC
Wind: from the NNW (340 degrees) at 12 MPH (10 KT) gusting to 23 MPH (20 KT):0
Visibility: 10 mile(s):0
Sky conditions: clear
Temperature: 12 F (-11 C)
Windchill: -2 F (-19 C):1
Dew Point: 1 F (-17 C)
Relative Humidity: 61%
Pressure (altimeter): 30.08 in. Hg (1018 hPa)
ob: KONA 220635Z AUTO 34010G20KT 10SM CLR M11/M17 A3008 RMK AO2
cycle: 6

Station Type Date Time Source
KONA TAF UTC NOAA

Error!

Example: see airport list